createdAt,value
2019-02-06T00:00:52.006Z,5.90
2019-02-06T00:03:21.293Z,5.90
2019-02-06T00:05:48.147Z,5.90
2019-02-06T00:08:14.910Z,5.90
2019-02-06T00:10:41.641Z,5.90
2019-02-06T00:13:08.562Z,5.90
2019-02-06T00:15:35.473Z,5.90
2019-02-06T00:18:02.280Z,5.90
2019-02-06T00:20:29.580Z,5.90
2019-02-06T00:22:56.378Z,5.90
2019-02-06T00:25:23.257Z,5.90
2019-02-06T00:27:50.021Z,5.90
2019-02-06T00:30:17.106Z,5.90
2019-02-06T00:32:43.882Z,5.90
2019-02-06T00:35:10.629Z,5.90
2019-02-06T00:37:37.753Z,5.90
2019-02-06T00:40:04.427Z,5.70
2019-02-06T00:42:31.340Z,5.80
2019-02-06T00:44:57.959Z,5.80
2019-02-06T00:47:25.765Z,5.90
2019-02-06T00:49:52.365Z,5.80
2019-02-06T00:52:19.015Z,5.80
2019-02-06T00:54:45.890Z,5.80
2019-02-06T00:57:13.381Z,5.80
2019-02-06T00:59:40.349Z,5.80
2019-02-06T01:02:07.085Z,5.80
2019-02-06T01:04:34.121Z,5.80
2019-02-06T01:07:02.830Z,5.80
2019-02-06T01:09:29.585Z,5.80
2019-02-06T01:11:56.305Z,5.80
2019-02-06T01:14:23.773Z,5.80
2019-02-06T01:16:50.541Z,5.80
2019-02-06T01:19:17.220Z,5.80
2019-02-06T01:21:43.893Z,5.80
2019-02-06T01:24:10.620Z,5.80
2019-02-06T01:26:38.373Z,5.80
2019-02-06T01:29:05.087Z,5.80
2019-02-06T01:31:32.511Z,5.80
2019-02-06T01:33:59.469Z,5.80
2019-02-06T01:36:26.559Z,5.80
2019-02-06T01:38:53.173Z,5.80
2019-02-06T01:41:20.032Z,5.80
2019-02-06T01:43:46.744Z,5.80
2019-02-06T01:46:13.856Z,5.80
2019-02-06T01:48:40.559Z,5.80
2019-02-06T01:51:07.182Z,5.80
2019-02-06T01:53:34.919Z,5.80
2019-02-06T01:56:04.209Z,5.80
2019-02-06T01:58:31.115Z,5.80
2019-02-06T02:00:57.697Z,5.80
2019-02-06T02:03:24.346Z,5.80
2019-02-06T02:06:01.937Z,5.80
2019-02-06T02:08:19.450Z,5.80
2019-02-06T02:10:46.114Z,5.80
2019-02-06T02:13:12.726Z,5.80
2019-02-06T02:15:41.258Z,5.80
2019-02-06T02:18:07.924Z,5.80
2019-02-06T02:20:36.391Z,5.80
2019-02-06T02:23:04.224Z,5.80
2019-02-06T02:25:31.944Z,5.80
2019-02-06T02:27:58.564Z,5.80
2019-02-06T02:30:41.886Z,5.80
2019-02-06T02:33:09.030Z,5.80
2019-02-06T02:35:35.656Z,5.80
2019-02-06T02:38:02.467Z,5.80
2019-02-06T02:40:29.066Z,5.80
2019-02-06T02:42:56.823Z,5.80
2019-02-06T02:45:24.064Z,5.80
2019-02-06T02:47:50.723Z,5.80
2019-02-06T02:50:17.660Z,5.80
2019-02-06T02:52:44.643Z,5.80
2019-02-06T02:55:12.612Z,5.80
2019-02-06T02:57:39.532Z,5.80
2019-02-06T03:00:08.288Z,5.80
2019-02-06T03:02:57.191Z,5.80
2019-02-06T03:05:27.471Z,5.80
2019-02-06T03:07:54.454Z,5.80
2019-02-06T03:10:21.480Z,5.80
2019-02-06T03:12:48.092Z,5.80
2019-02-06T03:15:14.809Z,5.80
2019-02-06T03:17:41.913Z,5.80
2019-02-06T03:20:08.534Z,5.80
2019-02-06T03:22:36.459Z,5.80
2019-02-06T03:25:03.191Z,5.80
2019-02-06T03:27:29.831Z,5.60
2019-02-06T03:29:56.987Z,5.80
2019-02-06T03:32:24.911Z,5.80
2019-02-06T03:34:53.260Z,5.80
2019-02-06T03:37:20.445Z,5.80
2019-02-06T03:39:47.460Z,5.80
2019-02-06T03:42:14.071Z,5.80
2019-02-06T03:44:40.720Z,5.80
2019-02-06T03:47:07.761Z,5.80
2019-02-06T03:49:34.526Z,5.50
2019-02-06T03:52:01.213Z,5.80
2019-02-06T03:54:28.436Z,5.80
2019-02-06T03:56:55.525Z,5.80
2019-02-06T03:59:22.243Z,6.00
2019-02-06T04:01:48.941Z,5.80
2019-02-06T04:04:15.566Z,5.80
2019-02-06T04:06:53.533Z,5.80
2019-02-06T04:09:10.927Z,5.80
2019-02-06T04:11:37.670Z,5.80
2019-02-06T04:14:05.771Z,5.80
2019-02-06T04:16:34.398Z,5.80
2019-02-06T04:19:01.316Z,5.80
2019-02-06T04:21:28.385Z,5.80
2019-02-06T04:23:55.087Z,5.80
2019-02-06T04:26:21.838Z,5.80
2019-02-06T04:28:50.369Z,5.80
2019-02-06T04:31:17.548Z,5.80
2019-02-06T04:33:44.399Z,5.80
2019-02-06T04:36:11.475Z,5.80
2019-02-06T04:38:38.524Z,5.80
2019-02-06T04:41:05.134Z,5.80
2019-02-06T04:43:32.886Z,5.80
2019-02-06T04:45:59.789Z,5.80
2019-02-06T04:48:27.778Z,5.80
2019-02-06T04:50:54.358Z,5.80
2019-02-06T04:53:20.966Z,5.80
2019-02-06T04:55:47.556Z,5.80
2019-02-06T04:58:14.390Z,5.80
2019-02-06T05:00:41.039Z,5.80
2019-02-06T05:03:07.734Z,5.70
2019-02-06T05:05:34.334Z,5.80
2019-02-06T05:08:00.918Z,5.80
2019-02-06T05:10:28.191Z,5.80
2019-02-06T05:12:54.762Z,5.80
2019-02-06T05:15:21.483Z,5.50
2019-02-06T05:17:48.166Z,5.80
2019-02-06T05:20:17.100Z,5.80
2019-02-06T05:22:43.974Z,5.90
2019-02-06T05:25:11.805Z,5.90
2019-02-06T05:27:38.649Z,5.80
2019-02-06T05:30:05.392Z,5.90
2019-02-06T05:32:31.998Z,5.90
2019-02-06T05:34:58.757Z,5.90
2019-02-06T05:37:32.040Z,5.90
2019-02-06T05:39:53.992Z,5.90
2019-02-06T05:42:21.337Z,5.90
2019-02-06T05:44:49.863Z,5.90
2019-02-06T05:47:16.821Z,5.90
2019-02-06T05:49:43.603Z,5.90
2019-02-06T05:52:10.479Z,5.90
2019-02-06T05:54:37.217Z,5.90
2019-02-06T05:57:03.965Z,5.90
2019-02-06T05:59:30.656Z,5.90
2019-02-06T06:01:57.449Z,5.90
2019-02-06T06:04:24.384Z,5.90
2019-02-06T06:06:51.329Z,5.80
2019-02-06T06:09:18.064Z,5.90
2019-02-06T06:11:44.693Z,5.90
2019-02-06T06:14:11.859Z,5.90
2019-02-06T06:16:38.971Z,5.90
2019-02-06T06:19:06.086Z,5.90
2019-02-06T06:21:33.005Z,5.90
2019-02-06T06:23:59.807Z,5.70
2019-02-06T06:26:28.445Z,5.90
2019-02-06T06:28:55.641Z,5.90
2019-02-06T06:31:24.411Z,5.90
2019-02-06T06:33:51.115Z,5.90
2019-02-06T06:36:19.107Z,5.90
2019-02-06T06:38:46.843Z,5.90
2019-02-06T06:41:13.526Z,5.90
2019-02-06T06:43:40.149Z,5.90
2019-02-06T06:46:09.056Z,5.90
2019-02-06T06:48:35.681Z,5.90
2019-02-06T06:51:02.609Z,6.00
2019-02-06T06:53:29.778Z,5.90
2019-02-06T06:55:56.395Z,6.00
2019-02-06T06:58:23.149Z,6.00
2019-02-06T07:00:49.792Z,6.00
2019-02-06T07:03:16.546Z,6.00
2019-02-06T07:05:43.798Z,6.00
2019-02-06T07:08:13.351Z,6.00
2019-02-06T07:10:39.234Z,6.00
2019-02-06T07:13:06.413Z,6.00
2019-02-06T07:15:33.228Z,6.00
2019-02-06T07:17:59.955Z,6.00
2019-02-06T07:20:26.776Z,6.00
2019-02-06T07:22:53.367Z,6.00
2019-02-06T07:25:20.772Z,6.00
2019-02-06T07:27:49.013Z,6.00
2019-02-06T07:30:15.894Z,6.00
2019-02-06T07:32:42.702Z,6.00
2019-02-06T07:35:09.466Z,6.00
2019-02-06T07:37:36.272Z,6.00
2019-02-06T07:40:03.089Z,6.10
2019-02-06T07:42:29.910Z,6.00
2019-02-06T07:44:56.868Z,6.00
2019-02-06T07:47:23.506Z,6.00
2019-02-06T07:49:50.571Z,6.00
2019-02-06T07:52:18.230Z,6.10
2019-02-06T07:54:44.899Z,6.00
2019-02-06T07:57:11.537Z,6.10
2019-02-06T07:59:38.799Z,6.10
2019-02-06T08:02:06.525Z,6.10
2019-02-06T08:04:34.374Z,6.10
2019-02-06T08:07:01.161Z,6.10
2019-02-06T08:09:27.960Z,6.10
2019-02-06T08:11:54.794Z,6.10
2019-02-06T08:14:21.536Z,6.10
2019-02-06T08:16:48.175Z,6.10
2019-02-06T08:19:14.819Z,6.10
2019-02-06T08:21:41.985Z,6.10
2019-02-06T08:24:08.843Z,6.10
2019-02-06T08:26:35.552Z,6.10
2019-02-06T08:29:02.553Z,6.10
2019-02-06T08:31:29.201Z,6.10
2019-02-06T08:33:56.099Z,6.10
2019-02-06T08:36:24.681Z,6.10
2019-02-06T08:38:51.497Z,6.10
2019-02-06T08:41:18.200Z,6.10
2019-02-06T08:43:45.249Z,6.10
2019-02-06T08:46:13.793Z,6.20
2019-02-06T08:48:40.521Z,6.10
2019-02-06T08:51:07.823Z,6.10
2019-02-06T08:53:34.578Z,6.10
2019-02-06T08:56:01.604Z,6.10
2019-02-06T08:58:28.625Z,6.10
2019-02-06T09:00:55.463Z,6.20
2019-02-06T09:03:22.457Z,6.10
2019-02-06T09:05:49.048Z,6.20
2019-02-06T09:08:15.889Z,6.10
2019-02-06T09:10:42.621Z,6.20
2019-02-06T09:13:09.407Z,6.20
2019-02-06T09:15:36.115Z,6.20
2019-02-06T09:18:03.127Z,6.20
2019-02-06T09:20:30.026Z,6.20
2019-02-06T09:22:56.649Z,6.20
2019-02-06T09:25:23.318Z,6.20
2019-02-06T09:27:50.026Z,6.20
2019-02-06T09:30:16.643Z,6.20
2019-02-06T09:32:43.301Z,6.20
2019-02-06T09:35:10.392Z,6.20
2019-02-06T09:37:37.398Z,6.20
2019-02-06T09:40:04.102Z,6.20
2019-02-06T09:42:31.810Z,6.20
2019-02-06T09:44:58.500Z,6.20
2019-02-06T09:47:27.213Z,6.20
2019-02-06T09:49:54.281Z,6.20
2019-02-06T09:52:20.965Z,6.20
2019-02-06T09:54:47.627Z,6.20
2019-02-06T09:57:14.504Z,6.30
2019-02-06T09:59:41.353Z,6.30
2019-02-06T10:02:09.535Z,6.30
2019-02-06T10:04:38.182Z,6.30
2019-02-06T10:07:04.955Z,6.30
2019-02-06T10:09:31.705Z,6.30
2019-02-06T10:11:58.456Z,6.30
2019-02-06T10:14:25.487Z,6.30
2019-02-06T10:16:52.491Z,6.30
2019-02-06T10:19:19.094Z,6.30
2019-02-06T10:21:45.794Z,6.30
2019-02-06T10:24:12.702Z,6.30
2019-02-06T10:26:42.054Z,6.30
2019-02-06T10:29:08.649Z,6.30
2019-02-06T10:31:35.395Z,6.30
2019-02-06T10:34:02.092Z,6.30
2019-02-06T10:36:28.760Z,6.30
2019-02-06T10:38:55.404Z,6.30
2019-02-06T10:41:22.450Z,6.40
2019-02-06T10:43:49.151Z,6.40
2019-02-06T10:46:18.201Z,6.40
2019-02-06T10:48:44.301Z,6.40
2019-02-06T10:51:11.001Z,6.40
2019-02-06T10:53:38.686Z,6.40
2019-02-06T10:56:05.452Z,6.40
2019-02-06T10:58:32.148Z,6.40
2019-02-06T11:00:58.742Z,6.40
2019-02-06T11:03:27.268Z,6.40
2019-02-06T11:05:55.024Z,6.40
2019-02-06T11:08:22.802Z,6.10
2019-02-06T11:10:49.619Z,6.50
2019-02-06T11:13:16.691Z,6.50
2019-02-06T11:15:43.758Z,6.50
2019-02-06T11:18:10.622Z,6.50
2019-02-06T11:20:37.317Z,6.50
2019-02-06T11:23:04.232Z,6.50
2019-02-06T11:25:31.059Z,6.50
2019-02-06T11:27:58.866Z,6.50
2019-02-06T11:30:25.761Z,6.50
2019-02-06T11:32:52.819Z,6.60
2019-02-06T11:35:19.581Z,6.60
2019-02-06T11:37:46.295Z,6.60
2019-02-06T11:40:15.264Z,6.60
2019-02-06T11:42:42.347Z,6.60
2019-02-06T11:45:09.135Z,6.60
2019-02-06T11:47:36.529Z,6.60
2019-02-06T11:50:05.266Z,6.20
2019-02-06T11:52:32.379Z,6.60
2019-02-06T11:54:59.125Z,6.70
2019-02-06T11:57:25.922Z,6.70
2019-02-06T11:59:53.265Z,6.70
2019-02-06T12:02:22.921Z,6.70
2019-02-06T12:04:51.895Z,6.70
2019-02-06T12:07:19.389Z,6.70
2019-02-06T12:09:45.998Z,6.70
2019-02-06T12:12:13.177Z,6.80
2019-02-06T12:14:40.178Z,6.60
2019-02-06T12:17:08.803Z,6.80
2019-02-06T12:19:35.509Z,6.80
2019-02-06T12:22:02.203Z,6.80
2019-02-06T12:24:28.892Z,6.80
2019-02-06T12:26:55.862Z,6.80
2019-02-06T12:29:23.105Z,6.80
2019-02-06T12:31:50.276Z,6.90
2019-02-06T12:34:17.015Z,6.90
2019-02-06T12:36:43.693Z,6.90
2019-02-06T12:39:10.401Z,6.90
2019-02-06T12:41:37.406Z,6.90
2019-02-06T12:44:04.254Z,6.90
2019-02-06T12:46:30.935Z,6.90
2019-02-06T12:48:57.961Z,6.90
2019-02-06T12:51:28.147Z,6.90
2019-02-06T12:53:57.958Z,7.00
2019-02-06T12:56:26.458Z,7.00
2019-02-06T12:58:53.198Z,7.00
2019-02-06T13:01:20.145Z,7.00
2019-02-06T13:03:46.954Z,6.90
2019-02-06T13:06:13.770Z,7.00
2019-02-06T13:08:41.907Z,7.00
2019-02-06T13:11:10.570Z,7.00
2019-02-06T13:13:38.378Z,7.10
2019-02-06T13:16:05.281Z,7.10
2019-02-06T13:18:31.907Z,7.10
2019-02-06T13:20:59.118Z,7.10
2019-02-06T13:23:25.734Z,7.10
2019-02-06T13:25:52.647Z,7.10
2019-02-06T13:28:19.445Z,7.10
2019-02-06T13:30:47.555Z,7.10
2019-02-06T13:33:14.088Z,7.10
2019-02-06T13:35:40.801Z,7.20
2019-02-06T13:38:07.460Z,7.20
2019-02-06T13:40:44.750Z,7.20
2019-02-06T13:43:04.937Z,7.20
2019-02-06T13:45:31.860Z,7.10
2019-02-06T13:47:58.751Z,7.20
2019-02-06T13:50:26.241Z,7.20
2019-02-06T13:52:53.085Z,7.20
2019-02-06T13:55:20.023Z,7.20
2019-02-06T13:57:46.968Z,7.20
2019-02-06T14:00:14.077Z,7.20
2019-02-06T14:02:43.045Z,7.30
2019-02-06T14:05:09.655Z,7.30
2019-02-06T14:07:37.036Z,7.30
2019-02-06T14:10:04.389Z,7.30
2019-02-06T14:12:33.152Z,7.30
2019-02-06T14:15:00.048Z,7.30
2019-02-06T14:17:27.264Z,7.30
2019-02-06T14:19:57.720Z,7.30
2019-02-06T14:22:24.331Z,7.30
2019-02-06T14:24:51.505Z,7.30
2019-02-06T14:27:18.547Z,7.30
2019-02-06T14:29:45.436Z,7.40
2019-02-06T14:32:15.716Z,7.40
2019-02-06T14:34:42.849Z,7.40
2019-02-06T14:37:10.246Z,7.40
2019-02-06T14:39:37.117Z,7.40
2019-02-06T14:42:03.946Z,7.40
2019-02-06T14:44:31.069Z,7.40
2019-02-06T14:47:01.652Z,7.40
2019-02-06T14:49:28.442Z,7.40
2019-02-06T14:51:55.354Z,7.40
2019-02-06T14:54:22.206Z,7.40
2019-02-06T14:56:48.923Z,7.40
2019-02-06T14:59:16.105Z,7.50
2019-02-06T15:01:43.194Z,7.50
2019-02-06T15:04:09.956Z,7.50
2019-02-06T15:06:36.865Z,7.50
2019-02-06T15:09:04.389Z,7.50
2019-02-06T15:11:31.537Z,7.50
2019-02-06T15:13:58.615Z,7.50
2019-02-06T15:16:25.546Z,7.50
2019-02-06T15:18:52.350Z,7.10
2019-02-06T15:21:19.023Z,7.50
2019-02-06T15:23:45.693Z,7.50
2019-02-06T15:26:12.483Z,7.50
2019-02-06T15:28:39.744Z,7.60
2019-02-06T15:31:06.438Z,7.60
2019-02-06T15:33:33.310Z,7.60
2019-02-06T15:36:00.468Z,7.60
2019-02-06T15:38:27.338Z,7.60
2019-02-06T15:40:54.071Z,7.60
2019-02-06T15:43:20.711Z,7.60
2019-02-06T15:45:47.554Z,7.30
2019-02-06T15:48:14.590Z,7.60
2019-02-06T15:50:41.766Z,7.60
2019-02-06T15:55:48.348Z,7.50
2019-02-06T15:58:15.547Z,7.60
2019-02-06T16:00:42.754Z,7.60
2019-02-06T16:03:09.692Z,7.60
2019-02-06T16:05:42.885Z,7.60
2019-02-06T16:08:13.216Z,7.70
2019-02-06T16:10:40.931Z,7.70
2019-02-06T16:13:07.716Z,7.70
2019-02-06T16:15:37.551Z,7.70
2019-02-06T16:18:04.581Z,7.70
2019-02-06T16:20:31.425Z,7.70
2019-02-06T16:22:58.516Z,7.70
2019-02-06T16:25:25.318Z,7.70
2019-02-06T16:27:51.866Z,7.70
2019-02-06T16:30:19.106Z,7.70
2019-02-06T16:32:45.989Z,7.70
2019-02-06T16:35:16.205Z,7.70
2019-02-06T16:37:43.523Z,7.70
2019-02-06T16:40:14.319Z,7.70
2019-02-06T16:42:41.440Z,7.70
2019-02-06T16:45:09.435Z,7.70
2019-02-06T16:47:45.102Z,7.70
2019-02-06T16:50:16.591Z,7.70
2019-02-06T16:52:44.727Z,7.70
2019-02-06T16:55:11.880Z,7.70
2019-02-06T16:57:38.532Z,7.70
2019-02-06T17:00:07.600Z,7.70
2019-02-06T17:02:34.484Z,7.70
2019-02-06T17:05:01.920Z,7.70
2019-02-06T17:07:29.092Z,7.80
2019-02-06T17:09:55.918Z,7.80
2019-02-06T17:12:23.686Z,7.70
2019-02-06T17:14:50.234Z,7.80
2019-02-06T17:17:16.866Z,7.80
2019-02-06T17:19:43.729Z,7.80
2019-02-06T17:22:10.735Z,7.80
2019-02-06T17:24:37.629Z,7.80
2019-02-06T17:27:04.387Z,7.80
2019-02-06T17:29:30.992Z,7.80
2019-02-06T17:31:57.629Z,7.80
2019-02-06T17:34:24.361Z,7.80
2019-02-06T17:36:51.330Z,7.80
2019-02-06T17:39:24.290Z,7.80
2019-02-06T17:41:47.312Z,7.80
2019-02-06T17:44:13.932Z,7.80
2019-02-06T17:46:41.320Z,7.80
2019-02-06T17:49:08.128Z,7.80
2019-02-06T17:51:36.926Z,7.80
2019-02-06T17:54:04.761Z,7.80
2019-02-06T17:56:31.723Z,7.80
2019-02-06T17:58:58.682Z,7.80
2019-02-06T18:01:25.353Z,7.80
2019-02-06T18:03:54.338Z,7.80
2019-02-06T18:06:20.838Z,7.80
2019-02-06T18:08:56.320Z,7.80
2019-02-06T18:11:16.002Z,7.80
2019-02-06T18:13:43.817Z,7.80
2019-02-06T18:16:20.871Z,7.80
2019-02-06T18:18:40.402Z,7.80
2019-02-06T18:21:07.008Z,7.90
2019-02-06T18:23:33.626Z,7.90
2019-02-06T18:26:01.387Z,7.90
2019-02-06T18:28:28.080Z,7.90
2019-02-06T18:30:57.029Z,7.90
2019-02-06T18:33:23.878Z,7.90
2019-02-06T18:35:52.325Z,7.90
2019-02-06T18:38:19.100Z,7.90
2019-02-06T18:40:47.810Z,7.90
2019-02-06T18:43:14.531Z,7.90
2019-02-06T18:45:41.473Z,7.90
2019-02-06T18:48:08.141Z,7.90
2019-02-06T18:50:34.795Z,7.90
2019-02-06T18:53:01.526Z,7.90
2019-02-06T18:55:28.369Z,7.90
2019-02-06T18:57:55.291Z,7.90
2019-02-06T19:00:21.984Z,7.90
2019-02-06T19:02:49.329Z,7.90
2019-02-06T19:05:16.250Z,7.90
2019-02-06T19:07:43.064Z,7.90
2019-02-06T19:10:11.349Z,8.00
2019-02-06T19:12:47.785Z,8.00
2019-02-06T19:15:07.097Z,8.00
2019-02-06T19:17:33.721Z,8.00
2019-02-06T19:20:00.484Z,8.00
2019-02-06T19:22:28.518Z,8.00
2019-02-06T19:24:55.411Z,8.00
2019-02-06T19:27:22.238Z,8.00
2019-02-06T19:29:49.324Z,8.00
2019-02-06T19:32:16.024Z,8.00
2019-02-06T19:34:42.781Z,8.00
2019-02-06T19:37:09.430Z,8.00
2019-02-06T19:39:36.257Z,8.00
2019-02-06T19:42:04.141Z,8.00
2019-02-06T19:44:30.816Z,8.00
2019-02-06T19:46:57.497Z,8.00
2019-02-06T19:49:24.185Z,8.00
2019-02-06T19:51:51.198Z,8.00
2019-02-06T19:54:17.928Z,8.00
2019-02-06T19:56:44.696Z,8.00
2019-02-06T19:59:11.482Z,8.00
2019-02-06T20:01:38.162Z,8.00
2019-02-06T20:04:04.877Z,8.00
2019-02-06T20:06:32.495Z,8.00
2019-02-06T20:08:59.195Z,7.70
2019-02-06T20:11:25.954Z,8.00
2019-02-06T20:13:53.659Z,8.10
2019-02-06T20:16:20.644Z,8.10
2019-02-06T20:18:47.341Z,8.10
2019-02-06T20:21:15.154Z,8.10
2019-02-06T20:23:42.098Z,8.10
2019-02-06T20:26:08.694Z,8.10
2019-02-06T20:28:37.591Z,8.10
2019-02-06T20:31:04.343Z,8.10
2019-02-06T20:33:30.992Z,8.10
2019-02-06T20:35:57.917Z,8.10
2019-02-06T20:38:24.822Z,8.10
2019-02-06T20:40:51.639Z,8.10
2019-02-06T20:43:22.348Z,8.10
2019-02-06T20:45:49.187Z,8.10
2019-02-06T20:48:16.029Z,8.10
2019-02-06T20:50:43.016Z,7.80
2019-02-06T20:53:12.553Z,8.10
2019-02-06T20:55:39.544Z,8.10
2019-02-06T20:58:08.392Z,8.10
2019-02-06T21:00:35.282Z,8.10
2019-02-06T21:03:01.890Z,8.10
2019-02-06T21:05:28.554Z,8.20
2019-02-06T21:07:55.410Z,8.20
2019-02-06T21:10:22.329Z,8.20
2019-02-06T21:12:49.046Z,8.20
2019-02-06T21:15:15.716Z,8.10
2019-02-06T21:17:44.269Z,8.20
2019-02-06T21:20:11.030Z,8.30
2019-02-06T21:22:37.745Z,8.20
2019-02-06T21:25:04.366Z,8.20
2019-02-06T21:27:31.554Z,8.20
2019-02-06T21:29:58.555Z,8.20
2019-02-06T21:32:27.685Z,8.20
2019-02-06T21:34:54.494Z,8.20
2019-02-06T21:37:23.097Z,8.20
2019-02-06T21:39:49.704Z,8.20
2019-02-06T21:42:18.657Z,8.20
2019-02-06T21:44:46.867Z,8.20
2019-02-06T21:47:15.313Z,8.20
2019-02-06T21:49:41.956Z,8.20
2019-02-06T21:52:08.658Z,8.20
2019-02-06T21:54:36.390Z,8.20
2019-02-06T21:57:03.235Z,8.30
2019-02-06T21:59:30.002Z,8.20
2019-02-06T22:01:56.800Z,8.30
2019-02-06T22:04:24.042Z,8.30
2019-02-06T22:06:52.494Z,8.30
2019-02-06T22:09:19.168Z,8.30
2019-02-06T22:11:45.868Z,8.30
2019-02-06T22:14:12.612Z,8.30
2019-02-06T22:16:39.354Z,8.30
2019-02-06T22:19:07.956Z,8.30
2019-02-06T22:21:35.298Z,8.30
2019-02-06T22:24:02.050Z,8.30
2019-02-06T22:26:28.898Z,8.30
2019-02-06T22:28:55.515Z,8.00
2019-02-06T22:31:23.606Z,8.30
2019-02-06T22:33:50.560Z,8.30
2019-02-06T22:36:18.346Z,8.30
2019-02-06T22:38:45.060Z,8.30
2019-02-06T22:41:11.688Z,8.30
2019-02-06T22:43:38.395Z,8.40
2019-02-06T22:46:05.127Z,8.40
2019-02-06T22:48:32.462Z,8.40
2019-02-06T22:50:59.214Z,8.40
2019-02-06T22:53:25.860Z,8.40
2019-02-06T22:55:52.515Z,8.40
2019-02-06T22:58:19.607Z,8.40
2019-02-06T23:00:50.429Z,8.40
2019-02-06T23:03:17.081Z,8.40
2019-02-06T23:05:43.691Z,8.40
2019-02-06T23:08:10.329Z,8.40
2019-02-06T23:10:37.465Z,8.40
2019-02-06T23:13:04.323Z,8.40
2019-02-06T23:15:31.445Z,8.40
2019-02-06T23:17:59.357Z,8.40
2019-02-06T23:20:26.201Z,8.40
2019-02-06T23:22:55.103Z,8.40
2019-02-06T23:25:21.739Z,8.40
2019-02-06T23:27:48.584Z,8.40
2019-02-06T23:30:15.405Z,8.40
2019-02-06T23:32:42.440Z,8.40
2019-02-06T23:35:09.200Z,8.50
2019-02-06T23:37:36.270Z,8.50
2019-02-06T23:40:02.874Z,8.50
2019-02-06T23:42:29.766Z,8.40
2019-02-06T23:44:58.517Z,8.50
2019-02-06T23:47:25.147Z,8.50
2019-02-06T23:49:51.865Z,8.50
2019-02-06T23:52:18.643Z,8.50
2019-02-06T23:54:46.436Z,8.50
2019-02-06T23:57:13.024Z,8.50
2019-02-06T23:59:39.684Z,8.50
